Latest Coastal Weather Observations for Coles Point

IDS60701

Issued at 10:11 am CST Tuesday 7 July 2015 (issued every 10 minutes, with the page automatically refreshed every 10 minutes)

About coastal observations | Map of coastal stations | Coastal observations for SA | Marine services | Other Formats
Station Details ID: 018191 Name: COLES POINT Lat: -34.37 Lon: 135.37 Height: 28.0 m
Data from the previous 72 hours. | See also: Recent months at Coles Point
Date/Time
CST
Temp

°C
Wind Pressure Rain
since 9am
mm
Weather Cloud Vis
km
Sea
Height
m
Swell
Dir
 
Speed
knots
Gust
knots
hPa Trend Height
m
Period
s
Dir
07/10:00am 13.5 CALM 0 1 1023.7 - 0.0 - - - - - - -
07/09:30am 12.7 E 4 5 1023.5 - 0.0 - - - - - - -
07/09:00am 12.5 WSW 5 7 1023.4 - 2.2 - - - - - - -
07/08:30am 11.4 SW 7 9 1023.3 - 2.2 - - - - - - -
07/08:00am 9.3 S 1 2 1023.1 - 2.2 - - - - - - -
07/07:30am 8.7 CALM 0 0 1022.8 - 2.2 - - - - - - -
07/07:00am 9.6 S 3 3 1022.5 - 2.2 - - - - - - -
07/06:30am 10.3 CALM 0 3 1022.3 - 2.2 - - - - - - -
07/06:00am 10.8 SSW 7 11 1022.1 - 2.2 - - - - - - -
07/05:30am 10.9 W 4 6 1021.8 - 2.2 - - - - - - -
07/05:00am 11.3 WSW 11 16 1021.7 - 2.2 - - - - - - -
07/04:30am 11.3 SW 9 12 1021.5 - 2.2 - - - - - - -
07/04:00am 11.6 SW 8 15 1021.7 - 2.0 - - - - - - -
07/03:30am 11.0 SW 12 16 1021.9 - 2.0 - - - - - - -
07/03:00am 10.2 SSW 3 5 1021.6 - 2.0 - - - - - - -
07/02:30am 11.2 SSW 7 10 1021.5 - 2.0 - - - - - - -
07/02:00am 11.2 SW 6 9 1021.5 - 2.0 - - - - - - -
07/01:30am 11.0 SW 4 6 1021.5 - 1.8 - - - - - - -
07/01:00am 11.1 W 5 9 1021.6 - 1.8 - - - - - - -
07/12:30am 11.7 SSW 7 9 1021.6 - 1.6 - - - - - - -
07/12:00am 11.2 S 6 8 1021.6 - 1.6 - - - - - - -
 
Date/Time
CST
Temp

°C
Wind Pressure Rain
since 9am
mm
Weather Cloud Vis
km
Sea
Height
m
Swell
Dir
 
Speed
knots
Gust
knots
hPa Trend Height
m
Period
s
Dir
06/11:30pm 12.0 SW 10 16 1021.7 - 1.6 - - - - - - -
06/11:00pm 11.8 W 7 12 1021.7 - 1.6 - - - - - - -
06/10:30pm 11.5 WSW 12 16 1021.8 - 1.6 - - - - - - -
06/10:00pm 11.5 WSW 11 15 1021.7 - 1.2 - - - - - - -
06/09:30pm 12.3 SW 10 16 1021.4 - 1.0 - - - - - - -
06/09:00pm 12.3 SW 11 13 1021.1 - 1.0 - - - - - - -
06/08:30pm 12.0 SW 11 20 1020.9 - 1.0 - - - - - - -
06/08:00pm 12.1 SW 7 9 1020.7 - 1.0 - - - - - - -
06/07:30pm 12.0 SW 10 16 1020.5 - 0.8 - - - - - - -
06/07:00pm 12.4 SW 11 15 1020.2 - 0.4 - - - - - - -
06/06:30pm 12.4 SSW 9 13 1019.8 - 0.4 - - - - - - -
06/06:00pm 13.2 SW 12 17 1019.5 - 0.4 - - - - - - -
06/05:30pm 12.9 SSW 9 13 1019.2 - 0.4 - - - - - - -
06/05:00pm 13.3 SW 9 13 1018.9 - 0.4 - - - - - - -
06/04:30pm 13.9 SW 12 17 1018.8 - 0.4 - - - - - - -
06/04:00pm 14.7 WSW 12 16 1018.7 - 0.4 - - - - - - -
06/03:30pm 15.1 WSW 11 14 1018.5 - 0.4 - - - - - - -
06/03:00pm 15.1 WSW 13 16 1018.3 - 0.4 - - - - - - -
06/02:30pm 15.3 WSW 12 18 1018.2 - 0.4 - - - - - - -
06/02:00pm 15.4 WSW 13 17 1018.2 - 0.4 - - - - - - -
06/01:30pm 15.2 WSW 13 18 1018.4 - 0.4 - - - - - - -
06/01:00pm 14.4 W 13 17 1018.4 - 0.4 - - - - - - -
06/12:30pm 15.1 WSW 12 15 1018.5 - 0.4 - - - - - - -
06/12:00pm 14.1 WSW 7 10 1018.8 - 0.4 - - - - - - -
06/11:30am 13.7 SSW 9 13 1018.9 - 0.4 - - - - - - -
06/11:00am 14.7 WSW 13 17 1019.0 - 0.4 - - - - - - -
06/10:30am 13.5 WSW 15 19 1018.9 - 0.4 - - - - - - -
06/10:00am 14.3 WSW 8 13 1018.8 - 0.0 - - - - - - -
06/09:30am 13.6 WSW 9 12 1018.4 - 0.0 - - - - - - -
06/09:00am 13.7 WSW 10 15 1018.1 - 1.0 Recent precip. - - - - - -
06/08:30am 12.3 SW 12 15 1017.7 - 1.0 - - - - - - -
06/08:00am 13.5 WSW 11 14 1017.3 - 0.8 - - - - - - -
06/07:30am 13.2 WSW 12 16 1016.9 - 0.8 - - - - - - -
06/07:00am 12.5 W 13 18 1016.8 - 0.8 - - - - - - -
06/06:30am 12.6 WSW 15 25 1016.7 - 0.6 - - - - - - -
06/06:00am 14.1 W 12 15 1016.3 - 0.4 - - - - - - -
06/05:30am 13.7 WSW 11 15 1016.2 - 0.4 - - - - - - -
06/05:00am 13.6 WSW 11 15 1016.2 - 0.4 - - - - - - -
06/04:30am 13.4 WSW 11 16 1016.3 - 0.4 - - - - - - -
06/04:00am 13.6 WSW 15 20 1016.5 - 0.4 - - - - - - -
06/03:30am 13.5 SW 12 16 1016.5 - 0.4 - - - - - - -
06/03:00am 13.5 WSW 12 16 1016.4 - 0.2 - - - - - - -
06/02:30am 13.9 SW 11 15 1016.2 - 0.2 - - - - - - -
06/02:00am 13.9 WSW 11 16 1016.0 - 0.2 - - - - - - -
06/01:30am 14.1 WSW 9 11 1015.8 - 0.2 - - - - - - -
06/01:00am 12.6 W 5 7 1015.9 - 0.2 - - - - - - -
06/12:30am 13.0 W 5 8 1015.9 - 0.2 - - - - - - -
06/12:00am 14.2 WNW 9 13 1016.0 - 0.0 - - - - - - -
 
Date/Time
CST
Temp

°C
Wind Pressure Rain
since 9am
mm
Weather Cloud Vis
km
Sea
Height
m
Swell
Dir
 
Speed
knots
Gust
knots
hPa Trend Height
m
Period
s
Dir
05/11:30pm 14.2 NNW 8 11 1015.9 - 0.0 - - - - - - -
05/11:00pm 14.1 NNW 8 9 1016.0 - 0.0 - - - - - - -
05/10:30pm 13.9 NNW 8 10 1015.9 - 0.0 - - - - - - -
05/10:00pm 13.9 NNW 9 12 1015.9 - 0.0 - - - - - - -
05/09:30pm 13.8 NNW 8 10 1016.0 - 0.0 - - - - - - -
05/09:00pm 14.0 NNW 8 10 1016.1 - 0.0 - - - - - - -
05/08:30pm 13.7 NNW 5 7 1016.4 - 0.0 - - - - - - -
05/08:00pm 13.9 NNW 7 10 1016.0 - 0.0 - - - - - - -
05/07:30pm 13.5 NNW 7 9 1015.9 - 0.0 - - - - - - -
05/07:00pm 13.8 NNW 8 10 1016.0 - 0.0 - - - - - - -
05/06:30pm 13.8 NNW 7 10 1015.9 - 0.0 - - - - - - -
05/06:00pm 14.4 NNW 8 10 1016.1 - 0.0 - - - - - - -
05/05:30pm 14.4 NNW 8 11 1015.9 - 0.0 - - - - - - -
05/05:00pm 14.7 NW 9 14 1016.1 - 0.0 - - - - - - -
05/04:30pm 14.8 NNW 10 12 1016.0 - 0.0 - - - - - - -
05/04:00pm 15.0 NNW 11 14 1016.0 - 0.0 - - - - - - -
05/03:30pm 15.3 NW 12 17 1016.1 - 0.0 - - - - - - -
05/03:00pm 15.6 NW 13 17 1016.3 - 0.0 - - - - - - -
05/02:30pm 15.4 NW 13 17 1016.3 - 0.0 - - - - - - -
05/02:00pm 15.4 NNW 14 18 1016.3 - 0.0 - - - - - - -
05/01:30pm 15.3 NW 15 19 1016.7 - 0.0 - - - - - - -
05/01:00pm 15.6 NNW 15 21 1017.0 - 0.0 - - - - - - -
05/12:30pm 15.4 NNW 17 21 1017.5 - 0.0 - - - - - - -
05/12:00pm 15.2 NNW 16 22 1017.9 - 0.0 - - - - - - -
05/11:30am 15.1 NNW 17 22 1018.4 - 0.0 - - - - - - -
05/11:00am 14.2 NNW 16 21 1018.7 - 0.0 - - - - - - -
05/10:30am 13.5 N 13 17 1019.1 - 0.0 - - - - - - -
05/10:00am 12.5 N 10 13 1019.1 - 0.0 - - - - - - -
05/09:59am 12.4 N 10 13 1019.1 - 0.0 - - - - - - -
05/09:30am 7.4 NE 10 13 1019.3 - 0.0 - - - - - - -
05/09:00am 6.3 NE 11 13 1019.2 - 0.0 - - - - - - -
05/08:30am 5.4 NE 10 13 1019.3 - 0.0 - - - - - - -
05/08:00am 4.9 NE 11 13 1019.1 - 0.0 - - - - - - -
05/07:30am 4.4 NE 10 11 1019.2 - 0.0 - - - - - - -
05/07:00am 5.0 NE 10 12 1019.2 - 0.0 - - - - - - -
05/06:30am 5.3 NE 10 12 1019.0 - 0.0 - - - - - - -
05/06:00am 5.4 NE 10 12 1019.0 - 0.0 - - - - - - -
05/05:30am 5.5 ENE 9 11 1019.0 - 0.0 - - - - - - -
05/05:00am 5.7 ENE 9 12 1019.2 - 0.0 - - - - - - -
05/04:30am 5.6 NE 10 12 1019.0 - 0.0 - - - - - - -
05/04:00am 6.0 NE 11 13 1019.1 - 0.0 - - - - - - -
05/03:30am 6.4 NE 9 12 1019.3 - 0.0 - - - - - - -
05/03:00am 6.3 NE 9 11 1019.6 - 0.0 - - - - - - -
05/02:30am 6.4 ENE 9 10 1019.7 - 0.0 - - - - - - -
05/02:00am 6.5 NE 10 11 1019.6 - 0.0 - - - - - - -
05/01:30am 6.6 NE 11 13 1019.6 - 0.0 - - - - - - -
05/01:00am 6.8 NE 11 13 1019.8 - 0.0 - - - - - - -
05/12:30am 7.5 NE 10 11 1020.1 - 0.0 - - - - - - -
05/12:00am 7.6 NE 10 11 1020.3 - 0.0 - - - - - - -
 
Date/Time
CST
Temp

°C
Wind Pressure Rain
since 9am
mm
Weather Cloud Vis
km
Sea
Height
m
Swell
Dir
 
Speed
knots
Gust
knots
hPa Trend Height
m
Period
s
Dir
04/11:30pm 7.6 NE 10 11 1020.6 - 0.0 - - - - - - -
04/11:00pm 8.8 NE 10 11 1020.7 - 0.0 - - - - - - -
04/10:30pm 9.7 NE 9 10 1020.8 - 0.0 - - - - - - -
04/10:00pm 10.7 NNW 5 6 1021.0 - 0.0 - - - - - - -
04/09:30pm 10.4 NNW 5 7 1021.1 - 0.0 - - - - - - -
04/09:00pm 10.4 NNW 6 6 1021.1 - 0.0 - - - - - - -
04/08:30pm 9.8 NNW 6 7 1021.1 - 0.0 - - - - - - -
04/08:00pm 10.3 NNW 6 7 1021.2 - 0.0 - - - - - - -
04/07:30pm 10.6 NNW 6 7 1021.1 - 0.0 - - - - - - -
04/07:00pm 10.8 NNW 6 7 1021.2 - 0.0 - - - - - - -
04/06:30pm 11.2 NNW 5 7 1021.4 - 0.0 - - - - - - -
04/06:00pm 12.2 N 5 6 1021.2 - 0.0 - - - - - - -
04/05:30pm 13.0 NNW 6 8 1021.3 - 0.0 - - - - - - -
04/05:00pm 14.0 NNW 7 9 1021.4 - 0.0 - - - - - - -
04/04:30pm 14.6 NNW 8 11 1021.4 - 0.0 - - - - - - -
04/04:00pm 15.4 NNW 10 13 1021.3 - 0.0 - - - - - - -
04/03:30pm 15.4 NNW 10 13 1021.3 - 0.0 - - - - - - -
04/03:00pm 15.5 NNW 11 13 1021.1 - 0.0 - - - - - - -
04/02:30pm 15.6 NW 10 13 1021.2 - 0.0 - - - - - - -
04/02:00pm 15.4 NNW 11 14 1021.4 - 0.0 - - - - - - -
04/01:30pm 15.7 NW 11 13 1021.6 - 0.0 - - - - - - -
04/01:00pm 15.5 NNW 11 14 1022.0 - 0.0 - - - - - - -
04/12:30pm 15.5 NNW 10 13 1022.5 - 0.0 - - - - - - -
04/12:00pm 15.2 NNW 8 11 1022.7 - 0.0 - - - - - - -
04/11:30am 14.6 NNE 5 7 1023.3 - 0.0 - - - - - - -
04/11:00am 12.7 NE 6 8 1023.7 - 0.0 - - - - - - -
04/10:30am 10.4 NE 8 10 1023.9 - 0.0 - - - - - - -

Other Formats:

Comma delimited format used in spreadsheet applications
http://www.bom.gov.au/fwo/IDS60701/IDS60701.94658.axf

JavaScript Object Notation format (JSON) in row-major order
http://www.bom.gov.au/fwo/IDS60701/IDS60701.94658.json